sensor_id;sensor_type;location;lat;lon;timestamp;pressure;altitude;pressure_sealevel;temperature;humidity
11395;BME280;5753;54.402;10.220;2023-05-25T00:00:25;102422.13;;;23.66;43.65
11395;BME280;5753;54.402;10.220;2023-05-25T00:02:52;102425.44;;;23.03;44.74
11395;BME280;5753;54.402;10.220;2023-05-25T00:05:19;102423.38;;;23.33;43.98
11395;BME280;5753;54.402;10.220;2023-05-25T00:07:46;102428.84;;;23.11;44.25
11395;BME280;5753;54.402;10.220;2023-05-25T00:10:12;102429.19;;;22.78;44.88
11395;BME280;5753;54.402;10.220;2023-05-25T00:12:38;102426.97;;;23.26;44.52
11395;BME280;5753;54.402;10.220;2023-05-25T00:15:06;102436.88;;;21.78;46.92
11395;BME280;5753;54.402;10.220;2023-05-25T00:17:32;102438.44;;;22.13;46.37
11395;BME280;5753;54.402;10.220;2023-05-25T00:19:58;102449.91;;;21.90;46.67
11395;BME280;5753;54.402;10.220;2023-05-25T00:22:37;102441.72;;;22.44;45.69
11395;BME280;5753;54.402;10.220;2023-05-25T00:25:04;102438.69;;;21.58;47.66
11395;BME280;5753;54.402;10.220;2023-05-25T00:27:31;102440.25;;;22.05;46.46
11395;BME280;5753;54.402;10.220;2023-05-25T00:29:57;102429.53;;;22.35;45.53
11395;BME280;5753;54.402;10.220;2023-05-25T00:32:23;102431.78;;;22.82;44.50
11395;BME280;5753;54.402;10.220;2023-05-25T00:34:49;102439.72;;;22.70;44.59
11395;BME280;5753;54.402;10.220;2023-05-25T00:37:15;102437.88;;;22.87;44.54
11395;BME280;5753;54.402;10.220;2023-05-25T00:39:42;102432.75;;;22.68;44.47
11395;BME280;5753;54.402;10.220;2023-05-25T00:42:08;102438.44;;;22.10;45.69
11395;BME280;5753;54.402;10.220;2023-05-25T00:44:34;102441.78;;;22.36;45.42
11395;BME280;5753;54.402;10.220;2023-05-25T00:47:00;102453.88;;;22.57;44.57
11395;BME280;5753;54.402;10.220;2023-05-25T00:49:28;102448.75;;;22.40;45.29
11395;BME280;5753;54.402;10.220;2023-05-25T00:51:56;102453.00;;;22.56;44.87
11395;BME280;5753;54.402;10.220;2023-05-25T00:54:22;102444.94;;;22.78;43.74
11395;BME280;5753;54.402;10.220;2023-05-25T00:57:09;102449.31;;;22.83;43.49
11395;BME280;5753;54.402;10.220;2023-05-25T00:59:43;102447.63;;;22.69;43.96
11395;BME280;5753;54.402;10.220;2023-05-25T01:02:12;102448.84;;;22.31;44.69
11395;BME280;5753;54.402;10.220;2023-05-25T01:04:48;102443.66;;;22.17;44.60
11395;BME280;5753;54.402;10.220;2023-05-25T01:07:21;102438.88;;;22.73;43.16
11395;BME280;5753;54.402;10.220;2023-05-25T01:10:07;102448.88;;;22.22;44.76
11395;BME280;5753;54.402;10.220;2023-05-25T01:12:36;102447.44;;;21.58;45.94
11395;BME280;5753;54.402;10.220;2023-05-25T01:15:04;102440.53;;;21.28;46.21
11395;BME280;5753;54.402;10.220;2023-05-25T01:17:31;102438.88;;;20.85;47.91
11395;BME280;5753;54.402;10.220;2023-05-25T01:19:57;102449.34;;;20.88;47.38
11395;BME280;5753;54.402;10.220;2023-05-25T01:22:31;102449.31;;;20.97;47.48
11395;BME280;5753;54.402;10.220;2023-05-25T01:24:58;102452.75;;;20.29;49.14
11395;BME280;5753;54.402;10.220;2023-05-25T01:27:57;102457.22;;;20.88;47.66
11395;BME280;5753;54.402;10.220;2023-05-25T01:30:25;102454.50;;;21.46;46.50
11395;BME280;5753;54.402;10.220;2023-05-25T01:32:53;102454.59;;;20.85;47.10
11395;BME280;5753;54.402;10.220;2023-05-25T01:35:20;102461.56;;;20.43;48.23
11395;BME280;5753;54.402;10.220;2023-05-25T01:37:49;102459.81;;;20.80;47.50
11395;BME280;5753;54.402;10.220;2023-05-25T01:40:16;102464.19;;;20.89;47.88
11395;BME280;5753;54.402;10.220;2023-05-25T01:42:42;102459.69;;;19.90;50.41
11395;BME280;5753;54.402;10.220;2023-05-25T01:45:09;102464.81;;;19.72;50.28
11395;BME280;5753;54.402;10.220;2023-05-25T01:47:59;102464.09;;;20.19;49.21
11395;BME280;5753;54.402;10.220;2023-05-25T01:53:17;102462.16;;;19.61;50.79
11395;BME280;5753;54.402;10.220;2023-05-25T01:55:52;102469.13;;;19.55;51.43
11395;BME280;5753;54.402;10.220;2023-05-25T01:58:20;102480.66;;;20.11;50.41
11395;BME280;5753;54.402;10.220;2023-05-25T02:00:48;102478.50;;;19.30;52.23
11395;BME280;5753;54.402;10.220;2023-05-25T02:03:16;102480.28;;;19.32;52.31
11395;BME280;5753;54.402;10.220;2023-05-25T02:05:43;102476.28;;;20.00;50.63
11395;BME280;5753;54.402;10.220;2023-05-25T02:08:10;102474.44;;;19.84;50.84
11395;BME280;5753;54.402;10.220;2023-05-25T02:10:37;102480.44;;;19.54;51.38
11395;BME280;5753;54.402;10.220;2023-05-25T02:13:03;102481.16;;;19.33;51.76
11395;BME280;5753;54.402;10.220;2023-05-25T02:15:31;102484.13;;;19.94;50.17
11395;BME280;5753;54.402;10.220;2023-05-25T02:17:58;102488.03;;;19.17;52.18
11395;BME280;5753;54.402;10.220;2023-05-25T02:20:25;102485.75;;;19.69;51.15
11395;BME280;5753;54.402;10.220;2023-05-25T02:22:52;102467.44;;;19.76;50.36
11395;BME280;5753;54.402;10.220;2023-05-25T02:25:18;102478.91;;;20.07;49.92
11395;BME280;5753;54.402;10.220;2023-05-25T02:27:45;102469.44;;;20.45;48.56
11395;BME280;5753;54.402;10.220;2023-05-25T02:30:11;102478.72;;;19.59;50.71
11395;BME280;5753;54.402;10.220;2023-05-25T02:32:37;102477.03;;;19.70;50.22
11395;BME280;5753;54.402;10.220;2023-05-25T02:35:04;102487.34;;;19.45;51.40
11395;BME280;5753;54.402;10.220;2023-05-25T02:37:30;102484.13;;;19.98;50.39
11395;BME280;5753;54.402;10.220;2023-05-25T02:39:56;102490.66;;;19.20;52.22
11395;BME280;5753;54.402;10.220;2023-05-25T02:42:22;102488.81;;;19.05;52.28
11395;BME280;5753;54.402;10.220;2023-05-25T02:44:48;102485.38;;;19.12;52.40
11395;BME280;5753;54.402;10.220;2023-05-25T02:47:15;102489.88;;;19.36;52.28
11395;BME280;5753;54.402;10.220;2023-05-25T02:49:43;102489.00;;;19.34;52.49
11395;BME280;5753;54.402;10.220;2023-05-25T02:52:09;102492.66;;;19.55;51.51
11395;BME280;5753;54.402;10.220;2023-05-25T02:54:35;102491.56;;;19.27;52.57
11395;BME280;5753;54.402;10.220;2023-05-25T02:57:02;102489.06;;;19.40;52.37
11395;BME280;5753;54.402;10.220;2023-05-25T02:59:29;102496.72;;;19.13;53.56
11395;BME280;5753;54.402;10.220;2023-05-25T03:01:55;102504.56;;;19.16;53.29
11395;BME280;5753;54.402;10.220;2023-05-25T03:04:21;102498.31;;;18.94;52.60
11395;BME280;5753;54.402;10.220;2023-05-25T03:06:47;102505.19;;;18.83;53.85
11395;BME280;5753;54.402;10.220;2023-05-25T03:09:13;102496.81;;;18.30;55.45
11395;BME280;5753;54.402;10.220;2023-05-25T03:11:40;102502.88;;;19.24;53.00
11395;BME280;5753;54.402;10.220;2023-05-25T03:14:06;102502.72;;;18.98;53.01
11395;BME280;5753;54.402;10.220;2023-05-25T03:16:32;102508.69;;;18.85;53.41
11395;BME280;5753;54.402;10.220;2023-05-25T03:19:01;102504.88;;;19.59;51.39
11395;BME280;5753;54.402;10.220;2023-05-25T03:21:27;102515.09;;;19.28;52.33
11395;BME280;5753;54.402;10.220;2023-05-25T03:23:53;102507.56;;;19.74;51.61
11395;BME280;5753;54.402;10.220;2023-05-25T03:26:19;102508.38;;;19.61;51.59
11395;BME280;5753;54.402;10.220;2023-05-25T03:28:46;102508.06;;;19.18;52.07
11395;BME280;5753;54.402;10.220;2023-05-25T03:31:12;102509.25;;;19.60;51.17
11395;BME280;5753;54.402;10.220;2023-05-25T03:33:38;102516.81;;;19.23;52.60
11395;BME280;5753;54.402;10.220;2023-05-25T03:36:08;102512.03;;;19.96;50.14
11395;BME280;5753;54.402;10.220;2023-05-25T03:38:36;102516.31;;;19.79;50.36
11395;BME280;5753;54.402;10.220;2023-05-25T03:41:02;102514.84;;;20.69;48.37
11395;BME280;5753;54.402;10.220;2023-05-25T03:43:28;102520.03;;;20.39;48.67
11395;BME280;5753;54.402;10.220;2023-05-25T03:45:54;102519.09;;;20.28;48.48
11395;BME280;5753;54.402;10.220;2023-05-25T03:48:20;102521.72;;;20.31;48.52
11395;BME280;5753;54.402;10.220;2023-05-25T03:50:46;102508.72;;;20.61;48.03
11395;BME280;5753;54.402;10.220;2023-05-25T03:53:12;102511.34;;;20.73;47.47
11395;BME280;5753;54.402;10.220;2023-05-25T03:55:38;102512.00;;;19.87;49.38
11395;BME280;5753;54.402;10.220;2023-05-25T03:58:04;102514.63;;;19.92;49.45
11395;BME280;5753;54.402;10.220;2023-05-25T04:00:30;102520.50;;;19.49;50.21
11395;BME280;5753;54.402;10.220;2023-05-25T04:02:56;102519.09;;;20.19;49.54
11395;BME280;5753;54.402;10.220;2023-05-25T04:05:23;102523.41;;;20.03;49.27
11395;BME280;5753;54.402;10.220;2023-05-25T04:07:49;102525.09;;;19.92;49.79
11395;BME280;5753;54.402;10.220;2023-05-25T04:10:16;102524.44;;;20.51;48.65
11395;BME280;5753;54.402;10.220;2023-05-25T04:12:42;102522.69;;;20.57;48.10
11395;BME280;5753;54.402;10.220;2023-05-25T04:15:09;102523.25;;;19.74;49.57
11395;BME280;5753;54.402;10.220;2023-05-25T04:17:37;102524.91;;;19.55;50.49
11395;BME280;5753;54.402;10.220;2023-05-25T04:20:03;102526.56;;;19.41;51.02
11395;BME280;5753;54.402;10.220;2023-05-25T04:22:30;102533.28;;;19.10;51.19
11395;BME280;5753;54.402;10.220;2023-05-25T04:24:58;102525.94;;;18.68;52.85
11395;BME280;5753;54.402;10.220;2023-05-25T04:27:24;102524.94;;;19.58;50.86
11395;BME280;5753;54.402;10.220;2023-05-25T04:29:51;102529.31;;;19.65;51.46
11395;BME280;5753;54.402;10.220;2023-05-25T04:32:19;102526.97;;;20.28;49.67
11395;BME280;5753;54.402;10.220;2023-05-25T04:34:46;102528.84;;;20.94;47.42
11395;BME280;5753;54.402;10.220;2023-05-25T04:37:13;102528.69;;;20.18;49.29
11395;BME280;5753;54.402;10.220;2023-05-25T04:39:39;102531.31;;;20.24;48.92
11395;BME280;5753;54.402;10.220;2023-05-25T04:42:05;102534.88;;;20.37;48.96
11395;BME280;5753;54.402;10.220;2023-05-25T04:44:32;102544.34;;;20.01;49.88
11395;BME280;5753;54.402;10.220;2023-05-25T04:46:59;102540.06;;;20.31;49.49
11395;BME280;5753;54.402;10.220;2023-05-25T04:49:26;102539.13;;;20.12;49.58
11395;BME280;5753;54.402;10.220;2023-05-25T04:51:52;102548.09;;;19.08;50.75
11395;BME280;5753;54.402;10.220;2023-05-25T04:54:18;102544.34;;;20.06;49.81
11395;BME280;5753;54.402;10.220;2023-05-25T04:56:44;102543.63;;;20.42;48.19
11395;BME280;5753;54.402;10.220;2023-05-25T04:59:10;102542.91;;;19.14;51.08
11395;BME280;5753;54.402;10.220;2023-05-25T05:01:36;102535.47;;;19.73;49.95
11395;BME280;5753;54.402;10.220;2023-05-25T05:04:09;102533.81;;;19.89;49.23
11395;BME280;5753;54.402;10.220;2023-05-25T05:06:35;102541.69;;;19.95;49.60
11395;BME280;5753;54.402;10.220;2023-05-25T05:09:01;102540.16;;;20.52;48.49
11395;BME280;5753;54.402;10.220;2023-05-25T05:11:28;102543.16;;;19.50;49.79
11395;BME280;5753;54.402;10.220;2023-05-25T05:13:55;102544.00;;;19.43;50.99
11395;BME280;5753;54.402;10.220;2023-05-25T05:16:21;102539.63;;;19.39;50.79
11395;BME280;5753;54.402;10.220;2023-05-25T05:18:47;102543.28;;;19.64;49.96
11395;BME280;5753;54.402;10.220;2023-05-25T05:21:13;102556.78;;;19.04;50.45
11395;BME280;5753;54.402;10.220;2023-05-25T05:23:41;102567.69;;;19.65;49.59
11395;BME280;5753;54.402;10.220;2023-05-25T05:26:07;102555.25;;;19.38;50.02
11395;BME280;5753;54.402;10.220;2023-05-25T05:28:36;102558.59;;;19.14;50.02
11395;BME280;5753;54.402;10.220;2023-05-25T05:31:02;102566.97;;;19.92;48.83
11395;BME280;5753;54.402;10.220;2023-05-25T05:33:28;102559.22;;;18.87;50.62
11395;BME280;5753;54.402;10.220;2023-05-25T05:35:56;102560.78;;;19.80;49.06
11395;BME280;5753;54.402;10.220;2023-05-25T05:38:22;102554.50;;;19.48;48.72
11395;BME280;5753;54.402;10.220;2023-05-25T05:40:48;102564.50;;;20.33;47.49
11395;BME280;5753;54.402;10.220;2023-05-25T05:43:14;102567.22;;;20.48;47.28
11395;BME280;5753;54.402;10.220;2023-05-25T05:45:40;102557.66;;;20.74;46.71
11395;BME280;5753;54.402;10.220;2023-05-25T05:48:06;102562.75;;;20.30;46.52
11395;BME280;5753;54.402;10.220;2023-05-25T05:50:37;102568.13;;;20.76;45.85
11395;BME280;5753;54.402;10.220;2023-05-25T05:53:03;102576.63;;;20.03;47.45
11395;BME280;5753;54.402;10.220;2023-05-25T05:55:30;102571.63;;;21.60;44.75
11395;BME280;5753;54.402;10.220;2023-05-25T05:57:56;102577.72;;;20.51;45.10
11395;BME280;5753;54.402;10.220;2023-05-25T06:00:22;102575.13;;;20.80;45.65
11395;BME280;5753;54.402;10.220;2023-05-25T06:02:49;102569.91;;;21.12;44.67
11395;BME280;5753;54.402;10.220;2023-05-25T06:05:15;102580.34;;;20.66;46.17
11395;BME280;5753;54.402;10.220;2023-05-25T06:07:46;102580.34;;;20.60;44.98
11395;BME280;5753;54.402;10.220;2023-05-25T06:10:12;102587.34;;;20.67;44.44
11395;BME280;5753;54.402;10.220;2023-05-25T06:12:38;102587.38;;;21.19;42.87
11395;BME280;5753;54.402;10.220;2023-05-25T06:15:05;102586.53;;;20.87;44.35
11395;BME280;5753;54.402;10.220;2023-05-25T06:17:31;102580.22;;;22.19;41.93
11395;BME280;5753;54.402;10.220;2023-05-25T06:19:57;102582.00;;;22.17;41.95
11395;BME280;5753;54.402;10.220;2023-05-25T06:22:23;102583.03;;;21.26;43.60
11395;BME280;5753;54.402;10.220;2023-05-25T06:24:52;102586.22;;;22.50;40.87
11395;BME280;5753;54.402;10.220;2023-05-25T06:27:18;102584.81;;;21.34;41.93
11395;BME280;5753;54.402;10.220;2023-05-25T06:29:44;102586.50;;;21.64;42.63
11395;BME280;5753;54.402;10.220;2023-05-25T06:32:10;102592.91;;;23.00;39.44
11395;BME280;5753;54.402;10.220;2023-05-25T06:34:37;102580.97;;;22.47;40.71
11395;BME280;5753;54.402;10.220;2023-05-25T06:37:03;102590.84;;;21.70;41.26
11395;BME280;5753;54.402;10.220;2023-05-25T06:39:29;102599.63;;;21.60;41.63
11395;BME280;5753;54.402;10.220;2023-05-25T06:41:55;102603.13;;;20.90;42.64
11395;BME280;5753;54.402;10.220;2023-05-25T06:44:21;102601.16;;;22.43;40.11
11395;BME280;5753;54.402;10.220;2023-05-25T06:46:47;102611.75;;;22.28;39.56
11395;BME280;5753;54.402;10.220;2023-05-25T06:49:14;102612.75;;;21.55;41.51
11395;BME280;5753;54.402;10.220;2023-05-25T06:51:40;102603.13;;;21.22;42.27
11395;BME280;5753;54.402;10.220;2023-05-25T06:54:06;102610.03;;;22.01;40.79
11395;BME280;5753;54.402;10.220;2023-05-25T06:56:33;102601.19;;;22.34;40.58
11395;BME280;5753;54.402;10.220;2023-05-25T06:58:59;102604.59;;;22.51;39.63
11395;BME280;5753;54.402;10.220;2023-05-25T07:01:25;102608.50;;;24.14;37.26
11395;BME280;5753;54.402;10.220;2023-05-25T07:03:51;102603.41;;;23.04;38.76
11395;BME280;5753;54.402;10.220;2023-05-25T07:06:19;102608.16;;;23.64;39.12
11395;BME280;5753;54.402;10.220;2023-05-25T07:08:45;102609.75;;;22.67;39.92
11395;BME280;5753;54.402;10.220;2023-05-25T07:11:11;102606.41;;;22.42;39.76
11395;BME280;5753;54.402;10.220;2023-05-25T07:13:39;102615.94;;;22.59;38.40
11395;BME280;5753;54.402;10.220;2023-05-25T07:16:05;102626.56;;;22.38;38.55
11395;BME280;5753;54.402;10.220;2023-05-25T07:18:31;102622.00;;;22.74;38.29
11395;BME280;5753;54.402;10.220;2023-05-25T07:20:57;102617.84;;;23.60;36.97
11395;BME280;5753;54.402;10.220;2023-05-25T07:23:24;102628.59;;;24.23;36.15
11395;BME280;5753;54.402;10.220;2023-05-25T07:25:50;102625.28;;;23.09;37.81
11395;BME280;5753;54.402;10.220;2023-05-25T07:28:16;102624.16;;;24.28;36.52
11395;BME280;5753;54.402;10.220;2023-05-25T07:30:42;102634.25;;;23.88;36.77
11395;BME280;5753;54.402;10.220;2023-05-25T07:33:08;102623.00;;;24.47;36.04
11395;BME280;5753;54.402;10.220;2023-05-25T07:35:34;102636.25;;;23.62;37.52
11395;BME280;5753;54.402;10.220;2023-05-25T07:38:01;102640.56;;;23.72;37.09
11395;BME280;5753;54.402;10.220;2023-05-25T07:40:29;102637.94;;;24.48;35.69
11395;BME280;5753;54.402;10.220;2023-05-25T07:42:56;102634.69;;;24.28;36.80
11395;BME280;5753;54.402;10.220;2023-05-25T07:45:22;102640.72;;;23.55;37.33
11395;BME280;5753;54.402;10.220;2023-05-25T07:47:48;102647.31;;;23.99;36.64
11395;BME280;5753;54.402;10.220;2023-05-25T07:50:14;102642.50;;;24.97;34.92
11395;BME280;5753;54.402;10.220;2023-05-25T07:52:41;102646.56;;;23.88;35.63
11395;BME280;5753;54.402;10.220;2023-05-25T07:55:07;102646.69;;;24.52;35.29
11395;BME280;5753;54.402;10.220;2023-05-25T07:57:34;102645.53;;;23.99;35.71
11395;BME280;5753;54.402;10.220;2023-05-25T08:00:00;102638.94;;;23.54;37.30
11395;BME280;5753;54.402;10.220;2023-05-25T08:02:26;102637.81;;;23.82;37.00
11395;BME280;5753;54.402;10.220;2023-05-25T08:04:52;102652.19;;;23.45;37.32
11395;BME280;5753;54.402;10.220;2023-05-25T08:07:19;102651.88;;;24.60;36.05
11395;BME280;5753;54.402;10.220;2023-05-25T08:09:46;102639.13;;;24.89;35.33
11395;BME280;5753;54.402;10.220;2023-05-25T08:12:12;102651.97;;;24.51;35.52
11395;BME280;5753;54.402;10.220;2023-05-25T08:14:38;102656.69;;;24.90;34.87
11395;BME280;5753;54.402;10.220;2023-05-25T08:17:04;102650.91;;;25.25;34.64
11395;BME280;5753;54.402;10.220;2023-05-25T08:19:31;102660.88;;;26.10;33.64
11395;BME280;5753;54.402;10.220;2023-05-25T08:21:58;102669.66;;;25.62;33.22
11395;BME280;5753;54.402;10.220;2023-05-25T08:24:24;102666.84;;;26.19;32.90
11395;BME280;5753;54.402;10.220;2023-05-25T08:26:50;102665.41;;;26.03;32.85
11395;BME280;5753;54.402;10.220;2023-05-25T08:29:17;102669.75;;;25.56;33.92
11395;BME280;5753;54.402;10.220;2023-05-25T08:31:43;102669.22;;;25.87;32.99
11395;BME280;5753;54.402;10.220;2023-05-25T08:34:14;102671.22;;;25.74;33.37
11395;BME280;5753;54.402;10.220;2023-05-25T08:36:41;102672.88;;;26.26;32.88
11395;BME280;5753;54.402;10.220;2023-05-25T08:39:07;102673.25;;;26.08;32.53
11395;BME280;5753;54.402;10.220;2023-05-25T08:41:35;102680.66;;;26.33;32.49
11395;BME280;5753;54.402;10.220;2023-05-25T08:44:05;102677.00;;;26.41;31.84
11395;BME280;5753;54.402;10.220;2023-05-25T08:46:33;102686.63;;;25.97;33.36
11395;BME280;5753;54.402;10.220;2023-05-25T08:49:10;102686.41;;;25.61;33.92
11395;BME280;5753;54.402;10.220;2023-05-25T08:51:47;102690.00;;;25.00;34.18
11395;BME280;5753;54.402;10.220;2023-05-25T08:54:21;102694.03;;;24.63;35.48
11395;BME280;5753;54.402;10.220;2023-05-25T08:57:13;102691.06;;;24.86;34.76
11395;BME280;5753;54.402;10.220;2023-05-25T08:59:51;102687.22;;;25.66;34.30
11395;BME280;5753;54.402;10.220;2023-05-25T09:02:53;102696.66;;;25.26;33.87
11395;BME280;5753;54.402;10.220;2023-05-25T09:05:21;102690.25;;;25.40;33.97
11395;BME280;5753;54.402;10.220;2023-05-25T09:07:48;102691.06;;;25.44;33.59
11395;BME280;5753;54.402;10.220;2023-05-25T09:10:16;102689.69;;;27.07;32.31
11395;BME280;5753;54.402;10.220;2023-05-25T09:12:42;102700.25;;;27.44;31.20
11395;BME280;5753;54.402;10.220;2023-05-25T09:15:12;102699.66;;;27.31;31.00
11395;BME280;5753;54.402;10.220;2023-05-25T09:17:38;102702.44;;;26.01;33.02
11395;BME280;5753;54.402;10.220;2023-05-25T09:20:07;102701.38;;;26.56;32.22
11395;BME280;5753;54.402;10.220;2023-05-25T09:22:35;102701.41;;;26.09;31.70
11395;BME280;5753;54.402;10.220;2023-05-25T09:25:05;102692.50;;;26.14;32.62
11395;BME280;5753;54.402;10.220;2023-05-25T09:27:35;102701.84;;;27.85;30.83
11395;BME280;5753;54.402;10.220;2023-05-25T09:30:04;102696.69;;;28.13;30.05
11395;BME280;5753;54.402;10.220;2023-05-25T09:32:31;102709.59;;;26.83;31.42
11395;BME280;5753;54.402;10.220;2023-05-25T09:35:17;102712.25;;;27.58;31.08
11395;BME280;5753;54.402;10.220;2023-05-25T09:37:44;102705.66;;;27.75;30.64
11395;BME280;5753;54.402;10.220;2023-05-25T09:40:10;102712.56;;;26.24;31.99
11395;BME280;5753;54.402;10.220;2023-05-25T09:42:37;102720.63;;;26.63;32.90
11395;BME280;5753;54.402;10.220;2023-05-25T09:45:04;102712.53;;;27.11;31.00
11395;BME280;5753;54.402;10.220;2023-05-25T09:47:31;102721.94;;;25.40;33.23
11395;BME280;5753;54.402;10.220;2023-05-25T09:49:58;102703.63;;;25.84;32.75
11395;BME280;5753;54.402;10.220;2023-05-25T09:52:25;102705.72;;;26.59;31.85
11395;BME280;5753;54.402;10.220;2023-05-25T09:54:52;102708.59;;;26.00;31.47
11395;BME280;5753;54.402;10.220;2023-05-25T09:57:19;102703.28;;;26.48;32.21
11395;BME280;5753;54.402;10.220;2023-05-25T09:59:46;102700.56;;;26.91;31.02
11395;BME280;5753;54.402;10.220;2023-05-25T10:02:13;102709.50;;;27.26;30.52
11395;BME280;5753;54.402;10.220;2023-05-25T10:04:40;102714.56;;;27.72;30.09
11395;BME280;5753;54.402;10.220;2023-05-25T10:07:08;102716.53;;;28.31;28.88
11395;BME280;5753;54.402;10.220;2023-05-25T10:09:41;102717.31;;;28.34;28.73
11395;BME280;5753;54.402;10.220;2023-05-25T10:12:09;102719.22;;;27.97;28.97
11395;BME280;5753;54.402;10.220;2023-05-25T10:14:37;102725.81;;;27.80;30.64
11395;BME280;5753;54.402;10.220;2023-05-25T10:17:04;102731.75;;;27.92;30.40
11395;BME280;5753;54.402;10.220;2023-05-25T10:22:19;102726.69;;;26.23;32.46
11395;BME280;5753;54.402;10.220;2023-05-25T10:27:38;102728.59;;;28.10;30.11
11395;BME280;5753;54.402;10.220;2023-05-25T10:30:06;102725.50;;;27.58;30.14
11395;BME280;5753;54.402;10.220;2023-05-25T10:32:37;102722.91;;;25.35;33.12
11395;BME280;5753;54.402;10.220;2023-05-25T10:35:05;102731.63;;;27.96;30.14
11395;BME280;5753;54.402;10.220;2023-05-25T10:37:33;102734.84;;;28.40;29.68
11395;BME280;5753;54.402;10.220;2023-05-25T10:40:01;102734.66;;;28.75;29.30
11395;BME280;5753;54.402;10.220;2023-05-25T10:42:27;102740.16;;;28.40;29.36
11395;BME280;5753;54.402;10.220;2023-05-25T10:44:55;102732.91;;;29.05;29.17
11395;BME280;5753;54.402;10.220;2023-05-25T10:47:21;102723.28;;;28.72;28.86
11395;BME280;5753;54.402;10.220;2023-05-25T10:49:53;102722.00;;;28.56;29.35
11395;BME280;5753;54.402;10.220;2023-05-25T10:52:20;102732.66;;;28.54;28.99
11395;BME280;5753;54.402;10.220;2023-05-25T10:54:47;102742.28;;;28.27;30.34
11395;BME280;5753;54.402;10.220;2023-05-25T10:57:17;102741.00;;;29.57;29.26
11395;BME280;5753;54.402;10.220;2023-05-25T10:59:48;102734.75;;;29.30;27.75
11395;BME280;5753;54.402;10.220;2023-05-25T11:02:15;102734.00;;;29.26;28.37
11395;BME280;5753;54.402;10.220;2023-05-25T11:04:41;102732.50;;;29.18;28.02
11395;BME280;5753;54.402;10.220;2023-05-25T11:07:08;102727.09;;;29.21;28.39
11395;BME280;5753;54.402;10.220;2023-05-25T11:09:43;102737.50;;;28.69;28.95
11395;BME280;5753;54.402;10.220;2023-05-25T11:12:20;102733.41;;;29.46;27.75
11395;BME280;5753;54.402;10.220;2023-05-25T11:15:08;102733.03;;;29.83;27.75
11395;BME280;5753;54.402;10.220;2023-05-25T11:17:57;102735.44;;;28.79;28.77
11395;BME280;5753;54.402;10.220;2023-05-25T11:20:26;102732.94;;;28.45;28.49
11395;BME280;5753;54.402;10.220;2023-05-25T11:22:53;102731.94;;;29.36;27.61
11395;BME280;5753;54.402;10.220;2023-05-25T11:25:37;102733.09;;;30.55;25.95
11395;BME280;5753;54.402;10.220;2023-05-25T11:28:08;102728.41;;;29.88;26.53
11395;BME280;5753;54.402;10.220;2023-05-25T11:30:38;102725.88;;;29.59;26.92
11395;BME280;5753;54.402;10.220;2023-05-25T11:33:04;102725.50;;;29.15;27.39
11395;BME280;5753;54.402;10.220;2023-05-25T11:35:32;102723.22;;;30.10;25.73
11395;BME280;5753;54.402;10.220;2023-05-25T11:37:59;102713.59;;;29.81;27.23
11395;BME280;5753;54.402;10.220;2023-05-25T11:40:29;102715.03;;;29.65;25.98
11395;BME280;5753;54.402;10.220;2023-05-25T11:42:56;102721.66;;;30.04;25.18
11395;BME280;5753;54.402;10.220;2023-05-25T11:45:28;102708.81;;;30.16;25.90
11395;BME280;5753;54.402;10.220;2023-05-25T11:47:54;102711.34;;;29.42;25.46
11395;BME280;5753;54.402;10.220;2023-05-25T11:50:22;102709.53;;;30.44;25.06
11395;BME280;5753;54.402;10.220;2023-05-25T11:52:48;102715.84;;;31.10;23.61
11395;BME280;5753;54.402;10.220;2023-05-25T11:55:14;102719.94;;;32.03;23.30
11395;BME280;5753;54.402;10.220;2023-05-25T11:57:40;102720.66;;;32.66;22.61
11395;BME280;5753;54.402;10.220;2023-05-25T12:00:07;102715.19;;;32.10;24.69
11395;BME280;5753;54.402;10.220;2023-05-25T12:02:42;102706.09;;;32.14;23.28
11395;BME280;5753;54.402;10.220;2023-05-25T12:05:08;102707.75;;;31.77;22.07
11395;BME280;5753;54.402;10.220;2023-05-25T12:07:42;102702.91;;;31.65;22.47
11395;BME280;5753;54.402;10.220;2023-05-25T12:10:11;102715.06;;;34.29;21.67
11395;BME280;5753;54.402;10.220;2023-05-25T12:12:46;102707.06;;;33.26;21.68
11395;BME280;5753;54.402;10.220;2023-05-25T12:15:19;102700.91;;;32.50;23.32
11395;BME280;5753;54.402;10.220;2023-05-25T12:17:47;102701.97;;;35.19;19.96
11395;BME280;5753;54.402;10.220;2023-05-25T12:20:14;102706.66;;;35.76;19.01
11395;BME280;5753;54.402;10.220;2023-05-25T12:22:42;102704.38;;;37.37;18.25
11395;BME280;5753;54.402;10.220;2023-05-25T12:25:10;102709.91;;;38.25;17.07
11395;BME280;5753;54.402;10.220;2023-05-25T12:27:37;102704.88;;;39.17;15.96
11395;BME280;5753;54.402;10.220;2023-05-25T12:30:05;102698.13;;;37.10;17.90
11395;BME280;5753;54.402;10.220;2023-05-25T12:32:32;102699.34;;;37.84;16.19
11395;BME280;5753;54.402;10.220;2023-05-25T12:35:05;102693.09;;;37.83;16.45
11395;BME280;5753;54.402;10.220;2023-05-25T12:37:32;102697.78;;;38.56;15.38
11395;BME280;5753;54.402;10.220;2023-05-25T12:39:58;102688.41;;;38.85;15.14
11395;BME280;5753;54.402;10.220;2023-05-25T12:42:25;102693.47;;;38.90;15.24
11395;BME280;5753;54.402;10.220;2023-05-25T12:44:55;102694.94;;;40.21;14.47
11395;BME280;5753;54.402;10.220;2023-05-25T12:47:26;102690.38;;;41.61;13.85
11395;BME280;5753;54.402;10.220;2023-05-25T12:50:13;102690.00;;;41.45;13.31
11395;BME280;5753;54.402;10.220;2023-05-25T12:52:44;102682.41;;;38.45;14.95
11395;BME280;5753;54.402;10.220;2023-05-25T12:55:28;102688.44;;;38.72;15.38
11395;BME280;5753;54.402;10.220;2023-05-25T12:57:56;102686.31;;;39.37;14.55
11395;BME280;5753;54.402;10.220;2023-05-25T13:00:31;102683.94;;;38.24;14.99
11395;BME280;5753;54.402;10.220;2023-05-25T13:02:57;102687.53;;;39.79;14.11